Time;durP1;ratioP1;P1;durP2;ratioP2;P2;SDS_P1;SDS_P2;PMS_P1;PMS_P2;Temp;Humidity;BMP_temperature;BMP_pressure;BME280_temperature;BME280_humidity;BME280_pressure;Samples;Min_cycle;Max_cycle;Signal;HPM_P1;HPM_P2
2022/07/26 00:01:06;;;;;;;5.00;3.90;;;;;;;20.12;100.00;100111.44;4988636;28;20209;-72
2022/07/26 00:03:34;;;;;;;6.63;4.03;;;;;;;20.14;100.00;100138.63;4994347;28;20217;-72
2022/07/26 00:06:01;;;;;;;5.97;4.23;;;;;;;20.14;100.00;100135.09;4988150;28;20482;-72
2022/07/26 00:08:27;;;;;;;5.97;4.10;;;;;;;20.14;100.00;100148.34;4986651;28;20205;-72
2022/07/26 00:10:53;;;;;;;5.27;3.87;;;;;;;20.19;100.00;100154.13;4987487;28;20274;-72
2022/07/26 00:13:20;;;;;;;4.07;3.37;;;;;;;20.17;100.00;100162.19;5004641;23;20224;-74
2022/07/26 00:15:47;;;;;;;6.07;3.67;;;;;;;20.19;100.00;100162.09;5000620;28;20239;-72
2022/07/26 00:18:15;;;;;;;5.03;3.17;;;;;;;20.20;100.00;100166.44;4999320;28;20221;-74
2022/07/26 00:20:43;;;;;;;5.93;3.30;;;;;;;20.20;100.00;100188.44;4994499;28;20224;-73
2022/07/26 00:23:09;;;;;;;3.93;2.90;;;;;;;20.18;100.00;100193.00;4993780;28;20215;-73
2022/07/26 00:25:36;;;;;;;4.27;3.33;;;;;;;20.18;100.00;100192.16;4997468;28;20564;-74
2022/07/26 00:28:02;;;;;;;4.33;3.20;;;;;;;20.16;100.00;100181.69;5009569;23;20232;-71
2022/07/26 00:30:29;;;;;;;4.33;3.20;;;;;;;20.12;100.00;100159.06;5002317;28;20203;-71
2022/07/26 00:32:56;;;;;;;3.87;3.10;;;;;;;20.08;100.00;100160.22;4997150;28;20228;-72
2022/07/26 00:35:23;;;;;;;5.13;3.20;;;;;;;20.02;100.00;100150.94;5000601;28;20602;-71
2022/07/26 00:37:52;;;;;;;6.17;3.10;;;;;;;19.99;100.00;100153.81;4994433;28;20237;-71
2022/07/26 00:40:18;;;;;;;4.10;3.20;;;;;;;19.94;100.00;100155.94;5001357;28;20705;-71
2022/07/26 00:42:45;;;;;;;5.87;2.97;;;;;;;19.92;100.00;100183.47;4998464;28;20215;-71
2022/07/26 00:45:12;;;;;;;3.53;2.90;;;;;;;19.90;100.00;100186.22;4995862;28;20197;-71
2022/07/26 00:47:38;;;;;;;4.20;2.80;;;;;;;19.88;100.00;100197.88;5007498;28;20200;-71
2022/07/26 00:50:08;;;;;;;3.07;2.33;;;;;;;19.86;100.00;100198.84;5000727;28;20212;-71
2022/07/26 00:52:35;;;;;;;3.23;2.43;;;;;;;19.88;100.00;100200.53;4999856;28;20204;-71
2022/07/26 00:55:03;;;;;;;3.73;2.83;;;;;;;19.90;100.00;100198.63;5002646;28;20201;-72
2022/07/26 00:57:30;;;;;;;3.53;2.40;;;;;;;19.88;100.00;100209.31;4998326;28;20287;-71
2022/07/26 00:59:59;;;;;;;3.67;2.80;;;;;;;19.89;100.00;100229.50;5001856;28;20779;-71
2022/07/26 01:02:26;;;;;;;3.67;2.43;;;;;;;19.92;100.00;100241.69;5002467;28;20518;-71
2022/07/26 01:04:53;;;;;;;3.63;2.77;;;;;;;19.93;100.00;100243.34;5003557;28;20287;-71
2022/07/26 01:07:19;;;;;;;3.97;2.83;;;;;;;19.95;100.00;100236.19;5003348;28;20204;-71
2022/07/26 01:09:46;;;;;;;4.97;2.80;;;;;;;19.84;100.00;100237.78;5000764;28;20224;-72
2022/07/26 01:12:13;;;;;;;3.33;3.00;;;;;;;19.71;100.00;100222.84;5000537;28;20204;-71
2022/07/26 01:14:42;;;;;;;3.93;3.33;;;;;;;19.57;100.00;100224.66;4995228;28;20216;-72
2022/07/26 01:17:09;;;;;;;4.30;3.10;;;;;;;19.42;100.00;100225.75;5002076;28;20212;-72
2022/07/26 01:19:35;;;;;;;4.60;3.57;;;;;;;19.32;100.00;100232.63;4997886;28;20220;-72
2022/07/26 01:22:03;;;;;;;3.70;3.10;;;;;;;19.21;100.00;100230.72;4999082;28;20216;-72
2022/07/26 01:24:29;;;;;;;4.53;3.30;;;;;;;19.16;100.00;100233.66;5004375;28;20459;-71
2022/07/26 01:26:55;;;;;;;4.97;3.70;;;;;;;19.13;100.00;100236.50;5003885;28;20205;-71
2022/07/26 01:29:22;;;;;;;5.20;3.27;;;;;;;19.11;100.00;100241.06;5003384;28;20236;-72
2022/07/26 01:31:49;;;;;;;4.00;3.03;;;;;;;19.03;100.00;100246.00;5008641;28;20200;-72
2022/07/26 01:34:16;;;;;;;3.40;3.10;;;;;;;19.01;100.00;100247.91;5002882;28;20647;-71
2022/07/26 01:36:43;;;;;;;3.20;2.80;;;;;;;18.91;100.00;100258.25;5006870;28;20661;-71
2022/07/26 01:39:11;;;;;;;2.83;2.20;;;;;;;18.83;100.00;100261.41;5001704;28;20255;-71
2022/07/26 01:41:37;;;;;;;6.63;2.90;;;;;;;18.81;100.00;100247.41;5002508;28;20701;-71
2022/07/26 01:44:04;;;;;;;3.70;3.00;;;;;;;18.76;100.00;100246.88;5004107;28;20550;-71
2022/07/26 01:46:31;;;;;;;4.67;3.00;;;;;;;18.74;100.00;100248.78;5003122;28;20388;-72
2022/07/26 01:48:58;;;;;;;5.60;2.80;;;;;;;18.76;100.00;100246.88;5002605;28;20228;-71
2022/07/26 01:51:25;;;;;;;4.17;2.97;;;;;;;18.74;100.00;100251.41;5008207;28;20299;-71
2022/07/26 01:53:51;;;;;;;4.67;2.60;;;;;;;18.68;100.00;100265.00;5004452;28;20205;-71
2022/07/26 01:56:19;;;;;;;3.13;2.60;;;;;;;18.67;100.00;100264.19;5006372;28;20201;-71
2022/07/26 01:58:45;;;;;;;2.93;2.50;;;;;;;18.66;100.00;100264.28;5005756;28;20229;-71
2022/07/26 02:01:11;;;;;;;3.60;3.00;;;;;;;18.68;100.00;100267.66;5005561;28;20712;-71
2022/07/26 02:03:38;;;;;;;4.60;3.10;;;;;;;18.67;100.00;100277.38;4997569;28;20676;-71
2022/07/26 02:06:05;;;;;;;4.33;2.50;;;;;;;18.76;100.00;100272.44;4999692;28;20197;-71
2022/07/26 02:08:32;;;;;;;4.47;2.83;;;;;;;18.74;100.00;100273.38;4999438;28;20569;-71
2022/07/26 02:11:01;;;;;;;3.90;2.57;;;;;;;18.68;100.00;100273.81;5005084;28;20199;-71
2022/07/26 02:13:31;;;;;;;3.00;2.33;;;;;;;18.67;100.00;100284.47;5004805;28;20701;-71
2022/07/26 02:15:58;;;;;;;2.47;2.27;;;;;;;18.63;100.00;100267.13;5005901;28;20480;-71
2022/07/26 02:18:26;;;;;;;3.27;2.97;;;;;;;18.57;100.00;100267.53;5003491;28;20715;-71
2022/07/26 02:20:52;;;;;;;6.00;2.47;;;;;;;18.58;100.00;100282.44;5001042;28;20237;-71
2022/07/26 02:23:19;;;;;;;3.20;2.40;;;;;;;18.59;100.00;100287.63;5004294;28;20219;-71
2022/07/26 02:25:46;;;;;;;2.90;2.30;;;;;;;18.57;100.00;100291.28;5001748;28;20192;-71
2022/07/26 02:28:13;;;;;;;3.17;2.60;;;;;;;18.53;100.00;100302.03;5005323;28;20224;-71
2022/07/26 02:30:41;;;;;;;4.30;2.40;;;;;;;18.50;100.00;100298.75;4998080;28;20212;-71
2022/07/26 02:33:07;;;;;;;2.90;2.40;;;;;;;18.49;100.00;100291.78;4999876;28;20563;-71
2022/07/26 02:35:34;;;;;;;4.50;2.60;;;;;;;18.44;100.00;100288.59;5002262;28;20662;-71
2022/07/26 02:38:05;;;;;;;2.70;2.40;;;;;;;18.40;100.00;100285.31;5002324;28;20219;-71
2022/07/26 02:40:31;;;;;;;4.57;2.90;;;;;;;18.44;100.00;100289.44;5000687;28;20216;-71
2022/07/26 02:42:58;;;;;;;3.87;2.67;;;;;;;18.45;100.00;100277.06;5004120;28;20299;-71
2022/07/26 02:45:24;;;;;;;2.97;2.60;;;;;;;18.44;100.00;100272.75;5000985;28;20602;-71
2022/07/26 02:47:54;;;;;;;5.63;3.13;;;;;;;18.45;100.00;100269.16;4998483;28;20232;-71
2022/07/26 02:50:23;;;;;;;3.10;2.50;;;;;;;18.42;100.00;100258.81;5005266;28;20204;-71
2022/07/26 02:52:50;;;;;;;3.10;2.70;;;;;;;18.42;100.00;100254.38;5000348;28;20665;-71
2022/07/26 02:55:18;;;;;;;3.37;2.73;;;;;;;18.33;100.00;100254.97;4999905;28;20700;-71
2022/07/26 02:57:45;;;;;;;5.17;2.90;;;;;;;18.29;100.00;100254.34;5000492;28;20212;-71
2022/07/26 03:00:14;;;;;;;3.73;2.80;;;;;;;18.28;100.00;100254.44;5004129;28;20205;-71
2022/07/26 03:02:40;;;;;;;4.40;2.80;;;;;;;18.25;100.00;100257.25;5000920;28;20196;-71
2022/07/26 03:05:09;;;;;;;3.80;3.00;;;;;;;18.21;100.00;100256.59;5001475;28;20260;-71
2022/07/26 03:07:35;;;;;;;2.83;2.47;;;;;;;18.19;100.00;100273.47;5000760;28;20216;-71
2022/07/26 03:10:02;;;;;;;4.17;2.90;;;;;;;18.08;100.00;100275.00;5000053;28;20200;-71
2022/07/26 03:12:30;;;;;;;3.53;3.00;;;;;;;18.14;100.00;100279.06;5003784;28;20223;-71
2022/07/26 03:14:56;;;;;;;5.00;3.00;;;;;;;18.14;100.00;100277.25;4998511;28;20682;-71
2022/07/26 03:17:22;;;;;;;5.00;3.10;;;;;;;18.10;100.00;100278.41;5002362;28;20201;-71
2022/07/26 03:19:49;;;;;;;4.83;2.93;;;;;;;18.08;100.00;100290.84;4998069;28;20567;-71
2022/07/26 03:22:17;;;;;;;3.97;3.23;;;;;;;18.04;100.00;100280.56;5001582;28;20216;-71
2022/07/26 03:24:43;;;;;;;6.37;3.40;;;;;;;17.94;100.00;100294.34;5002396;28;20201;-71
2022/07/26 03:27:09;;;;;;;4.30;3.10;;;;;;;17.96;100.00;100299.53;5000918;28;20212;-71
2022/07/26 03:29:36;;;;;;;3.87;3.20;;;;;;;17.95;100.00;100300.44;4999393;28;20591;-71
2022/07/26 03:32:02;;;;;;;6.70;3.40;;;;;;;17.93;100.00;100305.81;4999595;28;20818;-71
2022/07/26 03:34:29;;;;;;;3.83;3.20;;;;;;;17.89;100.00;100312.22;5002201;28;20212;-71
2022/07/26 03:36:55;;;;;;;4.97;3.40;;;;;;;17.85;100.00;100307.19;4997905;28;20203;-71
2022/07/26 03:39:24;;;;;;;4.77;3.40;;;;;;;17.89;100.00;100308.75;4998471;28;20807;-71
2022/07/26 03:41:50;;;;;;;6.10;3.47;;;;;;;17.87;100.00;100308.84;5001803;28;20216;-71
2022/07/26 03:44:16;;;;;;;3.63;3.20;;;;;;;17.89;100.00;100319.31;5000451;28;20602;-71
2022/07/26 03:46:43;;;;;;;4.17;3.17;;;;;;;17.92;100.00;100309.41;4997337;28;20205;-71
2022/07/26 03:49:09;;;;;;;5.50;3.63;;;;;;;17.98;100.00;100311.66;4997886;28;20224;-71
2022/07/26 03:51:35;;;;;;;4.63;3.63;;;;;;;18.01;100.00;100318.53;5000726;28;20216;-71
2022/07/26 03:54:02;;;;;;;4.67;3.53;;;;;;;17.98;100.00;100319.56;5005091;28;20208;-71
2022/07/26 03:56:30;;;;;;;4.07;3.63;;;;;;;17.88;100.00;100321.06;5000124;28;20200;-71
2022/07/26 03:58:58;;;;;;;4.73;3.37;;;;;;;17.82;100.00;100328.47;5000643;28;20280;-71
2022/07/26 04:01:25;;;;;;;4.53;3.80;;;;;;;17.83;100.00;100332.81;5004495;28;20229;-71
2022/07/26 04:03:52;;;;;;;5.33;4.00;;;;;;;17.80;100.00;100333.88;4999241;28;20201;-71
2022/07/26 04:06:18;;;;;;;3.77;3.37;;;;;;;17.83;100.00;100327.53;5003130;28;20719;-71
2022/07/26 04:08:45;;;;;;;4.33;3.90;;;;;;;17.84;100.00;100327.47;4999904;28;20398;-71
2022/07/26 04:11:11;;;;;;;4.67;3.60;;;;;;;17.85;100.00;100334.41;4995369;28;20219;-71
2022/07/26 04:13:39;;;;;;;3.70;3.33;;;;;;;17.89;100.00;100335.97;4996926;28;20220;-71
2022/07/26 04:16:06;;;;;;;5.73;4.20;;;;;;;17.89;100.00;100343.88;5000516;28;20208;-71
2022/07/26 04:18:33;;;;;;;4.70;3.50;;;;;;;18.04;100.00;100343.88;4994444;28;20236;-71
2022/07/26 04:20:59;;;;;;;5.63;3.40;;;;;;;18.05;100.00;100338.50;4997565;28;20550;-71
2022/07/26 04:23:26;;;;;;;4.60;3.87;;;;;;;18.06;100.00;100342.81;5003349;28;20199;-71
2022/07/26 04:25:52;;;;;;;8.07;3.90;;;;;;;18.08;100.00;100346.25;4988204;28;20597;-71
2022/07/26 04:28:19;;;;;;;6.17;3.40;;;;;;;17.99;100.00;100341.50;4993196;28;20232;-71
2022/07/26 04:30:46;;;;;;;5.03;4.20;;;;;;;18.02;100.00;100346.59;4997687;28;20207;-71
2022/07/26 04:33:13;;;;;;;3.73;3.37;;;;;;;18.02;100.00;100338.69;4998909;28;20209;-71
2022/07/26 04:35:39;;;;;;;4.07;3.50;;;;;;;18.10;100.00;100343.47;4996968;28;20201;-71
2022/07/26 04:38:05;;;;;;;3.93;3.53;;;;;;;18.07;100.00;100351.59;4995713;28;20712;-71
2022/07/26 04:40:33;;;;;;;4.03;3.50;;;;;;;18.12;100.00;100344.25;4997025;28;20201;-71
2022/07/26 04:43:01;;;;;;;4.17;3.13;;;;;;;18.11;100.00;100334.63;4996778;28;20215;-71
2022/07/26 04:45:28;;;;;;;6.40;3.40;;;;;;;18.12;100.00;100338.97;5001173;28;20201;-71
2022/07/26 04:47:57;;;;;;;4.07;3.37;;;;;;;18.23;100.00;100336.50;4996690;28;20240;-71
2022/07/26 04:50:24;;;;;;;4.57;3.40;;;;;;;18.22;100.00;100342.72;4999443;28;20197;-71
2022/07/26 04:52:51;;;;;;;3.53;3.17;;;;;;;18.31;100.00;100336.00;5000537;28;20201;-71
2022/07/26 04:55:18;;;;;;;6.03;3.00;;;;;;;18.32;100.00;100343.00;4998750;28;20208;-71
2022/07/26 04:57:46;;;;;;;3.50;3.07;;;;;;;18.39;100.00;100341.66;4991285;28;20204;-71
2022/07/26 05:00:14;;;;;;;4.00;3.27;;;;;;;18.38;100.00;100349.69;4997470;28;20197;-71
2022/07/26 05:02:40;;;;;;;9.23;3.77;;;;;;;18.44;100.00;100363.34;4994741;28;20220;-71
2022/07/26 05:05:09;;;;;;;3.57;3.07;;;;;;;18.53;100.00;100352.19;4994977;28;20303;-71
2022/07/26 05:07:42;;;;;;;4.70;3.17;;;;;;;18.57;100.00;100347.56;4995382;28;20204;-71
2022/07/26 05:10:10;;;;;;;4.43;3.60;;;;;;;18.58;100.00;100344.00;4995484;28;20208;-71
2022/07/26 05:12:36;;;;;;;3.43;2.90;;;;;;;18.61;100.00;100357.00;4997361;28;20203;-71
2022/07/26 05:15:04;;;;;;;4.07;3.20;;;;;;;18.67;100.00;100355.75;5001337;28;20216;-71
2022/07/26 05:17:30;;;;;;;3.97;3.07;;;;;;;18.74;100.00;100351.75;4999197;28;20669;-71
2022/07/26 05:19:57;;;;;;;3.10;2.80;;;;;;;18.74;100.00;100359.69;5002500;28;20205;-71
2022/07/26 05:22:25;;;;;;;5.00;3.27;;;;;;;18.79;100.00;100351.47;4998838;28;20568;-71
2022/07/26 05:24:51;;;;;;;3.70;3.17;;;;;;;18.86;100.00;100364.22;4993403;28;20205;-71
2022/07/26 05:27:17;;;;;;;4.20;2.90;;;;;;;18.95;100.00;100362.75;5001938;28;20208;-71
2022/07/26 05:29:43;;;;;;;3.97;3.20;;;;;;;19.03;100.00;100365.75;4992769;28;20229;-71
2022/07/26 05:32:10;;;;;;;5.50;3.33;;;;;;;19.03;100.00;100363.13;4996690;28;20216;-71
2022/07/26 05:34:36;;;;;;;4.77;3.47;;;;;;;19.06;100.00;100369.97;4995869;28;20293;-71
2022/07/26 05:37:03;;;;;;;3.10;2.80;;;;;;;19.09;100.00;100375.91;4990370;28;20207;-71
2022/07/26 05:39:30;;;;;;;4.70;3.30;;;;;;;19.09;100.00;100381.19;4992870;28;20322;-71
2022/07/26 05:41:57;;;;;;;3.23;2.60;;;;;;;19.12;100.00;100366.94;4995434;28;20217;-71
2022/07/26 05:44:23;;;;;;;3.33;2.60;;;;;;;19.11;100.00;100368.72;4991654;28;20204;-71
2022/07/26 05:46:50;;;;;;;3.80;3.43;;;;;;;19.26;100.00;100372.16;4991588;28;20212;-71
2022/07/26 05:49:16;;;;;;;3.30;2.93;;;;;;;19.32;100.00;100378.00;5001437;28;20240;-71
2022/07/26 05:51:43;;;;;;;3.57;3.00;;;;;;;19.36;100.00;100376.81;4997222;28;20199;-71
2022/07/26 05:54:09;;;;;;;4.40;2.90;;;;;;;19.33;100.00;100382.31;5003170;28;20240;-71
2022/07/26 05:56:37;;;;;;;3.60;3.07;;;;;;;19.38;100.00;100381.06;4999975;28;20205;-71
2022/07/26 05:59:03;;;;;;;4.10;3.13;;;;;;;19.31;100.00;100374.47;4995824;28;20330;-71
2022/07/26 06:01:31;;;;;;;3.70;3.10;;;;;;;19.34;100.00;100390.16;4992505;28;20541;-71
2022/07/26 06:03:57;;;;;;;4.20;3.10;;;;;;;19.33;100.00;100384.97;5002604;28;20204;-71
2022/07/26 06:06:24;;;;;;;3.67;3.17;;;;;;;19.32;100.00;100386.75;5000179;28;20197;-71
2022/07/26 06:08:50;;;;;;;3.37;3.07;;;;;;;19.41;100.00;100388.78;4995123;28;20247;-71
2022/07/26 06:11:17;;;;;;;5.00;3.00;;;;;;;19.45;100.00;100398.22;5002578;28;20209;-71
2022/07/26 06:13:44;;;;;;;3.10;2.80;;;;;;;19.47;100.00;100396.31;5000793;28;20640;-71
2022/07/26 06:16:11;;;;;;;2.70;2.50;;;;;;;19.58;100.00;100389.47;5003140;28;20205;-71
2022/07/26 06:18:37;;;;;;;4.93;3.47;;;;;;;19.66;100.00;100397.69;5003704;28;20702;-71
2022/07/26 06:21:04;;;;;;;3.73;3.10;;;;;;;19.75;100.00;100406.84;5002728;28;20689;-71
2022/07/26 06:23:30;;;;;;;4.43;3.10;;;;;;;19.89;100.00;100400.63;5003485;28;20217;-71
2022/07/26 06:25:56;;;;;;;4.80;3.00;;;;;;;19.98;100.00;100407.91;5002832;28;20215;-71
2022/07/26 06:28:23;;;;;;;3.13;2.80;;;;;;;20.04;100.00;100407.50;5005733;28;20646;-72
2022/07/26 06:30:51;;;;;;;4.47;3.00;;;;;;;20.16;100.00;100398.72;4997484;28;20192;-72
2022/07/26 06:33:17;;;;;;;3.67;2.97;;;;;;;20.26;100.00;100406.00;5006215;28;20200;-72
2022/07/26 06:35:44;;;;;;;4.37;3.23;;;;;;;20.25;100.00;100407.81;5003353;28;20673;-72
2022/07/26 06:38:10;;;;;;;7.27;2.97;;;;;;;20.30;100.00;100404.81;4999129;28;20239;-72
2022/07/26 06:40:36;;;;;;;3.60;2.70;;;;;;;20.35;100.00;100414.16;4999208;28;20247;-72
2022/07/26 06:43:03;;;;;;;4.37;3.13;;;;;;;20.48;100.00;100414.13;4997773;28;20223;-72
2022/07/26 06:45:30;;;;;;;4.83;3.00;;;;;;;20.60;100.00;100412.41;4995141;28;20244;-72
2022/07/26 06:47:57;;;;;;;5.27;3.40;;;;;;;20.77;100.00;100413.84;5003519;28;20217;-72
2022/07/26 06:50:24;;;;;;;5.27;2.83;;;;;;;20.93;100.00;100413.59;5001649;28;20212;-72
2022/07/26 06:52:50;;;;;;;3.43;2.83;;;;;;;20.99;100.00;100415.81;5003373;28;20453;-72
2022/07/26 06:55:17;;;;;;;3.07;2.67;;;;;;;21.05;100.00;100427.75;5005917;28;20211;-72
2022/07/26 06:57:43;;;;;;;2.60;2.33;;;;;;;21.04;100.00;100431.38;5000550;28;20215;-72
2022/07/26 07:00:11;;;;;;;5.93;3.03;;;;;;;20.99;100.00;100429.06;4999500;28;20684;-72
2022/07/26 07:02:37;;;;;;;3.97;2.50;;;;;;;21.13;100.00;100428.88;5005658;28;20235;-72
2022/07/26 07:05:06;;;;;;;2.73;2.30;;;;;;;21.24;100.00;100430.75;5006070;28;20238;-72
2022/07/26 07:07:32;;;;;;;1.93;1.70;;;;;;;21.25;100.00;100439.53;5004231;28;20212;-72
2022/07/26 07:09:58;;;;;;;2.33;2.00;;;;;;;21.20;100.00;100428.44;4999475;28;20205;-72
2022/07/26 07:12:25;;;;;;;1.83;1.70;;;;;;;21.20;100.00;100437.25;5003626;28;20209;-72
2022/07/26 07:14:51;;;;;;;1.60;1.50;;;;;;;21.09;98.09;100440.69;5000074;28;20344;-72
2022/07/26 07:17:19;;;;;;;2.43;1.50;;;;;;;21.06;96.43;100448.00;5001317;28;20451;-72
2022/07/26 07:19:45;;;;;;;2.97;1.50;;;;;;;20.97;91.86;100446.88;4998767;28;20224;-72
2022/07/26 07:22:13;;;;;;;2.20;1.50;;;;;;;20.95;92.82;100448.81;5005285;28;20213;-72
2022/07/26 07:24:40;;;;;;;1.50;1.40;;;;;;;20.90;94.61;100442.97;4999487;28;20215;-72
2022/07/26 07:27:06;;;;;;;2.03;1.37;;;;;;;20.75;92.23;100445.75;5001397;28;20200;-72
2022/07/26 07:29:33;;;;;;;2.57;1.57;;;;;;;20.70;92.64;100442.63;5003897;28;20232;-72
2022/07/26 07:31:59;;;;;;;2.63;1.57;;;;;;;20.65;95.12;100442.09;5003879;28;20204;-72
2022/07/26 07:34:26;;;;;;;2.23;1.30;;;;;;;20.60;97.33;100437.09;5001564;28;20197;-72
2022/07/26 07:36:53;;;;;;;3.53;1.57;;;;;;;20.53;96.13;100443.78;5001544;28;20204;-72
2022/07/26 07:39:21;;;;;;;2.83;1.53;;;;;;;20.51;96.36;100436.88;5002810;28;20220;-72
2022/07/26 07:41:48;;;;;;;2.67;1.77;;;;;;;20.45;96.75;100437.31;5007602;28;20333;-72
2022/07/26 07:44:15;;;;;;;1.40;1.30;;;;;;;20.34;95.43;100441.56;5002108;28;20213;-71
2022/07/26 07:46:41;;;;;;;1.43;1.33;;;;;;;20.36;97.99;100437.00;5000996;28;20189;-72
2022/07/26 07:49:09;;;;;;;2.93;1.60;;;;;;;20.38;98.74;100437.75;4997119;28;20236;-72
2022/07/26 07:51:35;;;;;;;2.13;1.80;;;;;;;20.39;98.17;100446.56;5000700;28;20794;-71
2022/07/26 07:54:02;;;;;;;2.87;1.50;;;;;;;20.38;95.04;100445.69;5001859;28;21861;-71
2022/07/26 07:56:29;;;;;;;3.20;1.57;;;;;;;20.44;95.20;100441.78;4998999;28;20197;-72
2022/07/26 07:58:56;;;;;;;3.17;1.50;;;;;;;20.53;94.51;100446.41;5005756;28;20242;-72
2022/07/26 08:01:22;;;;;;;1.60;1.20;;;;;;;20.66;95.67;100435.81;5003189;28;20673;-72
2022/07/26 08:03:48;;;;;;;1.97;1.57;;;;;;;20.79;96.11;100447.25;5001651;28;20233;-71
2022/07/26 08:06:14;;;;;;;2.10;1.50;;;;;;;20.88;96.32;100447.53;4999470;28;20211;-71
2022/07/26 08:08:41;;;;;;;1.30;1.20;;;;;;;20.88;96.50;100448.38;5002883;28;20236;-72
2022/07/26 08:11:07;;;;;;;3.90;1.40;;;;;;;20.91;94.57;100452.59;4998943;28;20205;-72
2022/07/26 08:13:35;;;;;;;1.33;1.23;;;;;;;21.01;95.59;100451.00;5000637;28;20343;-72
2022/07/26 08:16:01;;;;;;;2.47;1.40;;;;;;;21.03;91.99;100456.19;5000777;28;20201;-72
2022/07/26 08:18:28;;;;;;;1.90;1.57;;;;;;;21.12;92.05;100456.34;5002655;28;20964;-72
2022/07/26 08:20:54;;;;;;;4.07;1.63;;;;;;;21.22;92.37;100458.34;5001676;28;20209;-72
2022/07/26 08:23:21;;;;;;;1.57;1.33;;;;;;;21.22;91.99;100455.69;4999909;28;20760;-72
2022/07/26 08:25:48;;;;;;;2.07;1.60;;;;;;;21.20;91.80;100463.75;5000011;28;20200;-72
2022/07/26 08:28:15;;;;;;;2.03;1.70;;;;;;;21.20;91.91;100453.16;5001005;28;20236;-72
2022/07/26 08:30:43;;;;;;;2.80;1.53;;;;;;;21.17;91.45;100453.38;5000259;28;20674;-72
2022/07/26 08:33:09;;;;;;;3.57;1.73;;;;;;;21.12;89.91;100447.56;5002241;28;21865;-71
2022/07/26 08:35:35;;;;;;;4.23;2.00;;;;;;;21.14;91.43;100453.59;5001717;28;20581;-71
2022/07/26 08:38:02;;;;;;;2.13;1.80;;;;;;;21.11;90.77;100452.00;5003057;28;20228;-72
2022/07/26 08:40:29;;;;;;;3.80;1.80;;;;;;;21.16;90.33;100462.28;5006369;28;20220;-72
2022/07/26 08:42:56;;;;;;;2.50;1.67;;;;;;;21.20;90.18;100453.16;5000955;28;20232;-72
2022/07/26 08:45:24;;;;;;;3.50;2.07;;;;;;;21.29;90.38;100467.53;5002722;28;20201;-72
2022/07/26 08:47:52;;;;;;;3.83;1.60;;;;;;;21.33;89.66;100469.81;4998112;28;20229;-72
2022/07/26 08:50:19;;;;;;;3.20;2.40;;;;;;;21.41;90.17;100468.44;5003948;28;20188;-72
2022/07/26 08:52:46;;;;;;;1.97;1.70;;;;;;;21.48;86.83;100478.50;5003051;28;20205;-72
2022/07/26 08:55:16;;;;;;;1.47;1.37;;;;;;;21.60;87.51;100482.06;5000479;28;20219;-72
2022/07/26 08:57:43;;;;;;;1.90;1.60;;;;;;;21.66;86.17;100478.91;5002589;28;20200;-72
2022/07/26 09:00:19;;;;;;;3.93;1.77;;;;;;;21.68;84.70;100479.66;5007070;28;20563;-72
2022/07/26 09:02:46;;;;;;;3.73;2.43;;;;;;;21.96;85.71;100487.34;4999207;28;20217;-72
2022/07/26 09:05:14;;;;;;;3.88;3.30;;;;;;;22.25;86.88;100479.78;4993202;28;20684;-72
2022/07/26 09:07:41;;;;;;;2.67;1.58;;;;;;;22.49;83.75;100482.38;5000576;28;20220;-72
2022/07/26 09:10:10;;;;;;;1.38;1.27;;;;;;;22.68;81.11;100481.75;4999261;28;20294;-72
2022/07/26 09:12:37;;;;;;;3.70;2.10;;;;;;;22.66;80.45;100473.91;4996016;28;20576;-72
2022/07/26 09:15:06;;;;;;;2.83;1.65;;;;;;;22.77;79.29;100483.69;4997518;28;20204;-72
2022/07/26 09:17:40;;;;;;;1.75;1.60;;;;;;;22.86;78.65;100485.59;4998863;28;20227;-72
2022/07/26 09:20:09;;;;;;;2.33;1.63;;;;;;;23.01;80.57;100488.03;4995276;28;20693;-72
2022/07/26 09:22:38;;;;;;;2.40;1.58;;;;;;;23.20;77.78;100488.25;4993097;28;20212;-72
2022/07/26 09:25:19;;;;;;;2.08;1.65;;;;;;;23.36;75.59;100485.16;4991841;28;20208;-72
2022/07/26 09:27:46;;;;;;;1.80;1.60;;;;;;;23.52;71.61;100484.75;5002996;28;20288;-72
2022/07/26 09:30:13;;;;;;;3.20;1.30;;;;;;;23.86;73.24;100473.13;4996378;28;20232;-72
2022/07/26 09:32:39;;;;;;;1.20;1.05;;;;;;;24.04;72.84;100487.53;4997389;28;20208;-72
2022/07/26 09:35:11;;;;;;;1.30;1.20;;;;;;;24.13;66.83;100494.75;4996911;28;20197;-72
2022/07/26 09:37:42;;;;;;;2.67;1.17;;;;;;;24.12;64.21;100497.53;4998650;28;20681;-72
2022/07/26 09:40:11;;;;;;;2.25;1.20;;;;;;;24.08;63.54;100486.31;4997367;28;20606;-70
2022/07/26 09:42:38;;;;;;;2.03;1.33;;;;;;;24.10;64.59;100492.34;5000353;28;20219;-70
2022/07/26 09:45:16;;;;;;;2.20;1.30;;;;;;;24.20;65.42;100489.72;5002091;28;20572;-70
2022/07/26 09:47:42;;;;;;;2.17;1.42;;;;;;;24.09;62.17;100489.81;5005169;28;20208;-70
2022/07/26 09:50:10;;;;;;;2.40;1.25;;;;;;;23.97;64.40;100492.56;4998650;28;20208;-70
2022/07/26 09:52:38;;;;;;;3.22;1.25;;;;;;;23.76;65.88;100481.88;4999883;28;20288;-70
2022/07/26 09:55:06;;;;;;;1.63;1.27;;;;;;;23.50;64.92;100489.34;5003756;28;20197;-72
2022/07/26 09:57:34;;;;;;;3.15;1.42;;;;;;;23.39;67.21;100478.75;4996246;28;20197;-73
2022/07/26 10:00:02;;;;;;;2.10;1.45;;;;;;;23.31;66.62;100492.69;5002067;28;20216;-72
2022/07/26 10:02:30;;;;;;;2.35;1.23;;;;;;;23.34;67.34;100489.78;5005394;28;20536;-72
2022/07/26 10:04:57;;;;;;;3.60;1.33;;;;;;;23.40;68.59;100491.91;4993111;28;20209;-72
2022/07/26 10:07:24;;;;;;;1.50;1.40;;;;;;;23.25;66.83;100493.16;5006683;28;20626;-72
2022/07/26 10:09:57;;;;;;;1.38;1.27;;;;;;;23.04;67.57;100493.94;5001314;28;20232;-73
2022/07/26 10:12:28;;;;;;;1.98;1.15;;;;;;;22.75;67.13;100495.41;4997399;28;20866;-72
2022/07/26 10:14:55;;;;;;;3.33;1.00;;;;;;;22.30;70.88;100494.44;5002070;28;20209;-72
2022/07/26 10:17:45;;;;;;;2.50;1.08;;;;;;;21.96;75.63;100497.97;5003348;28;20208;-72
2022/07/26 10:20:43;;;;;;;2.13;1.10;;;;;;;21.69;78.09;100502.56;4999685;28;20220;-73
2022/07/26 10:23:35;;;;;;;1.98;1.02;;;;;;;21.57;79.59;100506.16;4998625;28;20573;-72
2022/07/26 10:26:04;;;;;;;1.40;0.90;;;;;;;21.44;78.77;100500.88;5002906;28;20487;-72
2022/07/26 10:28:32;;;;;;;1.50;1.30;;;;;;;21.52;80.74;100510.94;5003936;28;20576;-73
2022/07/26 10:31:24;;;;;;;2.07;1.20;;;;;;;21.54;79.64;100503.72;5004124;28;20205;-72
2022/07/26 10:33:52;;;;;;;1.90;1.30;;;;;;;21.58;77.04;100507.81;4990665;28;20720;-72
2022/07/26 10:36:23;;;;;;;1.93;1.30;;;;;;;21.84;80.25;100503.22;4996999;28;20569;-72
2022/07/26 10:39:08;;;;;;;1.30;1.20;;;;;;;22.05;76.47;100511.34;4993813;28;20554;-72
2022/07/26 10:41:38;;;;;;;2.13;1.30;;;;;;;22.24;73.27;100502.84;4996133;28;20209;-72
2022/07/26 10:44:16;;;;;;;1.23;1.10;;;;;;;22.57;74.83;100503.03;4993511;28;20228;-72
2022/07/26 10:47:14;;;;;;;1.53;1.30;;;;;;;23.08;73.67;100501.66;4997196;28;20216;-72
2022/07/26 10:49:43;;;;;;;1.30;1.20;;;;;;;23.40;69.78;100512.38;4960495;28;20270;-72
2022/07/26 10:52:12;;;;;;;1.50;1.40;;;;;;;23.54;69.13;100501.41;4996621;28;20666;-72
2022/07/26 10:55:16;;;;;;;1.65;1.38;;;;;;;23.55;65.74;100510.25;5004287;28;20208;-72
2022/07/26 10:57:45;;;;;;;1.40;1.10;;;;;;;23.75;66.64;100504.13;4999451;28;20262;-72
2022/07/26 11:00:17;;;;;;;1.35;1.25;;;;;;;24.05;66.87;100499.03;4997850;28;20496;-72
2022/07/26 11:02:48;;;;;;;1.58;1.10;;;;;;;24.22;62.73;100509.09;4997192;28;20677;-72
2022/07/26 11:05:17;;;;;;;1.40;1.30;;;;;;;24.43;61.12;100501.09;4998516;28;20205;-72
2022/07/26 11:07:53;;;;;;;1.30;1.10;;;;;;;24.57;59.34;100499.88;5001899;28;20212;-72
2022/07/26 11:10:28;;;;;;;0.98;0.98;;;;;;;24.74;58.72;100503.75;4998968;28;20208;-72
2022/07/26 11:13:07;;;;;;;2.90;1.20;;;;;;;24.81;60.56;100490.72;4995984;28;20952;-72
2022/07/26 11:15:35;;;;;;;0.93;0.93;;;;;;;24.97;57.98;100495.56;4994280;28;20637;-72
2022/07/26 11:18:09;;;;;;;2.88;0.90;;;;;;;25.06;59.46;100498.22;4994339;28;20237;-72
2022/07/26 11:20:36;;;;;;;1.55;0.90;;;;;;;25.00;56.85;100497.94;4998197;28;20211;-72
2022/07/26 11:23:03;;;;;;;1.17;1.00;;;;;;;24.90;56.43;100497.91;4996975;28;20196;-72